Terminal Aerodrome Forecast
Issued by NWS

Home | Current Version | Previous Version | Graphics & Text | Print | Product List | Glossary Off
Versions: 1 2 3 4 5 6 7 8 9 10 11 12 13 14 15

000
FTUS43 KTOP 271743
TAFMHK
TAF
KMHK 271743Z 2718/2818 15009KT P6SM VCTS OVC050CB
      TEMPO 2718/2720 5SM TSRA BKN020CB
     FM272000 16011KT P6SM BKN080
     FM280400 17014KT P6SM SCT250 WS015/18040KT
     FM280800 19014KT P6SM VCTS BKN090CB WS015/20045KT
     FM281100 18013KT P6SM BKN090 WS015/20045KT
     FM281400 20016KT P6SM BKN090
     FM281600 21018G26KT P6SM SCT110=

USA.gov is the U.S. government's official web portal to all federal, state and local government web resources and services.